Time;durP1;ratioP1;P1;durP2;ratioP2;P2;SDS_P1;SDS_P2;PMS_P1;PMS_P2;Temp;Humidity;BMP_temperature;BMP_pressure;BME280_temperature;BME280_humidity;BME280_pressure;Samples;Min_cycle;Max_cycle;Signal;HPM_P1;HPM_P2
2023/04/01 00:00:57;;;;;;;7.10;1.50;;;;;;;;;;7373388;19;20073;-78
2023/04/01 00:03:23;;;;;;;7.38;1.42;;;;;;;;;;7366512;19;19999;-78
2023/04/01 00:05:49;;;;;;;9.07;1.80;;;;;;;;;;7365819;19;20017;-77
2023/04/01 00:08:14;;;;;;;9.15;1.85;;;;;;;;;;7369920;19;20019;-81
2023/04/01 00:10:39;;;;;;;7.53;1.70;;;;;;;;;;7371869;19;19994;-78
2023/04/01 00:13:05;;;;;;;10.80;1.70;;;;;;;;;;7356921;19;20006;-79
2023/04/01 00:15:30;;;;;;;7.35;2.08;;;;;;;;;;7367678;19;20014;-79
2023/04/01 00:17:55;;;;;;;9.48;2.03;;;;;;;;;;7370015;19;20116;-78
2023/04/01 00:20:21;;;;;;;10.10;1.77;;;;;;;;;;7360354;19;19999;-77
2023/04/01 00:22:46;;;;;;;9.18;2.20;;;;;;;;;;7366989;19;20270;-76
2023/04/01 00:25:11;;;;;;;9.60;1.98;;;;;;;;;;7368751;19;19994;-77
2023/04/01 00:27:36;;;;;;;10.07;1.88;;;;;;;;;;7368928;19;20309;-78
2023/04/01 00:30:02;;;;;;;6.68;1.73;;;;;;;;;;7373027;19;20076;-77
2023/04/01 00:32:27;;;;;;;9.75;1.92;;;;;;;;;;7375744;19;20111;-79
2023/04/01 00:34:52;;;;;;;9.90;2.45;;;;;;;;;;7375071;19;20206;-76
2023/04/01 00:37:18;;;;;;;10.50;1.85;;;;;;;;;;7370542;19;20077;-79
2023/04/01 00:39:44;;;;;;;7.15;1.88;;;;;;;;;;7379776;19;20003;-81
2023/04/01 00:42:10;;;;;;;9.18;1.80;;;;;;;;;;7376346;19;20100;-78
2023/04/01 00:44:36;;;;;;;13.60;2.35;;;;;;;;;;7376855;19;20010;-79
2023/04/01 00:47:02;;;;;;;7.38;1.92;;;;;;;;;;7376741;19;20082;-77
2023/04/01 00:49:29;;;;;;;7.32;1.60;;;;;;;;;;7377532;19;19998;-77
2023/04/01 00:51:56;;;;;;;10.07;1.88;;;;;;;;;;7368648;19;20468;-76
2023/04/01 00:54:22;;;;;;;12.18;2.47;;;;;;;;;;7377662;19;20766;-79
2023/04/01 00:56:55;;;;;;;13.55;2.67;;;;;;;;;;7374107;19;20235;-76
2023/04/01 00:59:22;;;;;;;10.45;2.20;;;;;;;;;;7375788;19;20001;-77
2023/04/01 01:01:48;;;;;;;9.27;1.95;;;;;;;;;;7377505;19;20002;-81
2023/04/01 01:04:30;;;;;;;10.63;2.20;;;;;;;;;;7374884;19;20042;-77
2023/04/01 01:06:58;;;;;;;12.50;2.28;;;;;;;;;;7372449;19;20051;-75
2023/04/01 01:09:23;;;;;;;11.73;2.30;;;;;;;;;;7372592;19;19998;-77
2023/04/01 01:11:51;;;;;;;10.90;2.65;;;;;;;;;;7375193;19;20038;-80
2023/04/01 01:14:35;;;;;;;8.60;1.90;;;;;;;;;;7375181;19;20006;-80
2023/04/01 01:17:23;;;;;;;14.43;2.28;;;;;;;;;;7373420;19;20462;-81
2023/04/01 01:19:57;;;;;;;11.98;2.17;;;;;;;;;;7372321;19;20431;-80
2023/04/01 01:22:22;;;;;;;9.45;2.00;;;;;;;;;;7363740;19;20046;-79
2023/04/01 01:25:08;;;;;;;10.73;2.25;;;;;;;;;;7368455;19;20460;-82
2023/04/01 01:27:34;;;;;;;8.60;2.10;;;;;;;;;;7374221;19;19999;-79
2023/04/01 01:30:06;;;;;;;7.32;2.20;;;;;;;;;;7374144;19;20105;-77
2023/04/01 01:32:31;;;;;;;12.13;2.05;;;;;;;;;;7372189;19;20062;-77
2023/04/01 01:35:03;;;;;;;8.15;1.90;;;;;;;;;;7373343;19;20028;-78
2023/04/01 01:37:29;;;;;;;7.20;1.95;;;;;;;;;;7346778;19;20219;-84
2023/04/01 01:39:56;;;;;;;14.55;2.45;;;;;;;;;;7334549;19;20031;-80
2023/04/01 01:42:22;;;;;;;10.10;2.40;;;;;;;;;;7335658;19;20354;-81
2023/04/01 01:44:48;;;;;;;9.48;2.42;;;;;;;;;;7331871;19;19995;-83
2023/04/01 01:47:14;;;;;;;10.88;2.20;;;;;;;;;;7336546;19;20312;-83
2023/04/01 01:49:41;;;;;;;10.65;2.00;;;;;;;;;;7338726;19;20647;-84
2023/04/01 01:52:06;;;;;;;8.15;1.67;;;;;;;;;;7335470;19;20441;-78
2023/04/01 01:54:31;;;;;;;9.43;1.92;;;;;;;;;;7338059;19;20160;-81
2023/04/01 01:57:09;;;;;;;8.23;1.77;;;;;;;;;;7337476;19;20228;-83
2023/04/01 01:59:37;;;;;;;7.47;2.00;;;;;;;;;;7329688;19;20945;-83
2023/04/01 02:02:07;;;;;;;10.90;1.67;;;;;;;;;;7328047;19;20008;-81
2023/04/01 02:04:34;;;;;;;9.35;1.85;;;;;;;;;;7324467;19;20036;-83
2023/04/01 02:07:03;;;;;;;7.53;1.77;;;;;;;;;;7320476;19;20009;-80
2023/04/01 02:09:29;;;;;;;6.38;1.90;;;;;;;;;;7321737;19;20065;-85
2023/04/01 02:12:00;;;;;;;6.68;1.83;;;;;;;;;;7327501;19;20006;-84
2023/04/01 02:14:27;;;;;;;8.70;1.45;;;;;;;;;;7330033;19;20034;-81
2023/04/01 02:17:05;;;;;;;6.60;1.55;;;;;;;;;;7330184;19;20308;-83
2023/04/01 02:19:36;;;;;;;6.00;1.60;;;;;;;;;;7328899;19;20006;-84
2023/04/01 02:22:02;;;;;;;6.35;1.50;;;;;;;;;;7321806;19;20745;-84
2023/04/01 02:24:30;;;;;;;5.78;1.10;;;;;;;;;;7330798;19;20719;-80
2023/04/01 02:26:55;;;;;;;6.85;1.40;;;;;;;;;;7331923;19;20027;-82
2023/04/01 02:29:22;;;;;;;6.27;1.40;;;;;;;;;;7326186;19;20002;-85
2023/04/01 02:31:49;;;;;;;6.53;1.40;;;;;;;;;;7328410;19;20583;-87
2023/04/01 02:34:14;;;;;;;6.38;1.52;;;;;;;;;;7329387;19;20338;-84
2023/04/01 02:36:39;;;;;;;5.80;1.20;;;;;;;;;;7322754;19;20043;-83
2023/04/01 02:39:05;;;;;;;5.10;1.25;;;;;;;;;;7352029;19;20003;-84
2023/04/01 02:41:30;;;;;;;4.80;1.15;;;;;;;;;;7353275;19;19995;-80
2023/04/01 02:43:58;;;;;;;8.68;1.35;;;;;;;;;;7353324;19;20286;-82
2023/04/01 02:46:23;;;;;;;5.30;1.20;;;;;;;;;;7369485;19;20013;-76
2023/04/01 02:48:48;;;;;;;7.95;1.38;;;;;;;;;;7362415;19;20352;-81
2023/04/01 02:51:14;;;;;;;7.57;1.40;;;;;;;;;;7361768;19;20101;-81
2023/04/01 02:53:39;;;;;;;5.40;1.20;;;;;;;;;;7363066;19;20031;-81
2023/04/01 02:56:04;;;;;;;7.80;1.30;;;;;;;;;;7358529;19;20231;-81
2023/04/01 02:58:29;;;;;;;8.07;1.77;;;;;;;;;;7359774;19;20609;-82
2023/04/01 03:00:55;;;;;;;6.07;1.17;;;;;;;;;;7359515;19;20422;-82
2023/04/01 03:03:20;;;;;;;4.50;1.10;;;;;;;;;;7360385;19;20098;-81
2023/04/01 03:05:45;;;;;;;5.80;1.23;;;;;;;;;;7342231;19;20486;-84
2023/04/01 03:08:11;;;;;;;6.45;0.98;;;;;;;;;;7350173;19;20019;-81
2023/04/01 03:10:36;;;;;;;6.85;1.35;;;;;;;;;;7340652;19;19994;-80
2023/04/01 03:13:02;;;;;;;5.97;1.35;;;;;;;;;;7340355;19;20268;-77
2023/04/01 03:15:27;;;;;;;5.75;0.90;;;;;;;;;;7338463;19;20127;-80
2023/04/01 03:17:52;;;;;;;5.53;1.27;;;;;;;;;;7353295;19;19998;-87
2023/04/01 03:20:17;;;;;;;3.80;1.00;;;;;;;;;;7362082;19;20252;-78
2023/04/01 03:22:43;;;;;;;2.53;1.00;;;;;;;;;;7355877;19;20030;-78
2023/04/01 03:25:08;;;;;;;4.43;1.20;;;;;;;;;;7360048;19;20002;-79
2023/04/01 03:27:35;;;;;;;5.20;1.10;;;;;;;;;;7363484;19;20009;-82
2023/04/01 03:30:00;;;;;;;2.83;0.65;;;;;;;;;;7357124;19;20492;-80
2023/04/01 03:32:27;;;;;;;3.80;1.00;;;;;;;;;;7352324;19;20507;-84
2023/04/01 03:34:52;;;;;;;4.15;0.98;;;;;;;;;;7372403;19;20010;-79
2023/04/01 03:37:17;;;;;;;4.27;0.90;;;;;;;;;;7373220;19;20006;-82
2023/04/01 03:39:42;;;;;;;2.60;0.70;;;;;;;;;;7363728;19;20238;-81
2023/04/01 03:42:07;;;;;;;4.67;0.90;;;;;;;;;;7360391;19;20402;-77
2023/04/01 03:44:33;;;;;;;6.50;1.27;;;;;;;;;;7363411;19;20843;-81
2023/04/01 03:46:58;;;;;;;4.88;0.80;;;;;;;;;;7361214;19;20558;-80
2023/04/01 03:49:26;;;;;;;3.60;0.80;;;;;;;;;;7364742;19;20303;-83
2023/04/01 03:51:52;;;;;;;3.17;0.95;;;;;;;;;;7361012;19;20010;-79
2023/04/01 03:54:17;;;;;;;3.30;0.60;;;;;;;;;;7360847;19;19998;-81
2023/04/01 03:56:43;;;;;;;3.92;0.70;;;;;;;;;;7361650;19;20601;-78
2023/04/01 03:59:08;;;;;;;6.15;0.82;;;;;;;;;;7362289;19;19994;-79
2023/04/01 04:01:33;;;;;;;3.67;0.70;;;;;;;;;;7363126;19;20447;-81
2023/04/01 04:03:59;;;;;;;2.95;0.70;;;;;;;;;;7357925;19;20062;-84
2023/04/01 04:06:25;;;;;;;2.20;0.70;;;;;;;;;;7354588;19;20062;-81
2023/04/01 04:08:50;;;;;;;3.20;0.75;;;;;;;;;;7371197;19;19999;-79
2023/04/01 04:11:16;;;;;;;4.70;0.73;;;;;;;;;;7371618;19;20006;-79
2023/04/01 04:13:41;;;;;;;2.70;0.70;;;;;;;;;;7370914;19;20154;-81
2023/04/01 04:16:06;;;;;;;4.03;0.90;;;;;;;;;;7369384;19;19991;-82
2023/04/01 04:18:32;;;;;;;3.42;0.88;;;;;;;;;;7371258;19;20354;-78
2023/04/01 04:20:57;;;;;;;1.85;0.70;;;;;;;;;;7370531;19;20458;-80
2023/04/01 04:23:22;;;;;;;2.37;0.63;;;;;;;;;;7369555;19;20002;-80
2023/04/01 04:25:57;;;;;;;3.75;0.95;;;;;;;;;;7369083;19;20864;-79
2023/04/01 04:28:24;;;;;;;2.40;0.68;;;;;;;;;;7369038;19;20516;-79
2023/04/01 04:30:49;;;;;;;2.53;0.77;;;;;;;;;;7370050;19;20089;-80
2023/04/01 04:33:15;;;;;;;3.55;0.90;;;;;;;;;;7369980;19;20475;-81
2023/04/01 04:35:40;;;;;;;2.80;0.70;;;;;;;;;;7371326;19;20424;-80
2023/04/01 04:38:05;;;;;;;2.63;0.60;;;;;;;;;;7368575;19;20247;-78
2023/04/01 04:40:30;;;;;;;2.93;0.90;;;;;;;;;;7369027;19;20347;-81
2023/04/01 04:42:55;;;;;;;2.75;0.70;;;;;;;;;;7369452;19;20315;-80
2023/04/01 04:45:21;;;;;;;4.18;0.60;;;;;;;;;;7367825;19;20451;-80
2023/04/01 04:47:46;;;;;;;4.03;0.70;;;;;;;;;;7371772;19;20006;-81
2023/04/01 04:50:11;;;;;;;2.15;0.60;;;;;;;;;;7368491;19;20569;-82
2023/04/01 04:52:36;;;;;;;3.88;1.00;;;;;;;;;;7368938;19;20269;-81
2023/04/01 04:55:02;;;;;;;2.47;0.53;;;;;;;;;;7366973;19;19998;-84
2023/04/01 04:57:27;;;;;;;1.52;0.50;;;;;;;;;;7366563;19;20255;-78
2023/04/01 04:59:52;;;;;;;3.05;0.60;;;;;;;;;;7368571;19;19999;-87
2023/04/01 05:02:17;;;;;;;1.75;0.70;;;;;;;;;;7369937;19;20248;-82
2023/04/01 05:04:43;;;;;;;1.73;0.63;;;;;;;;;;7363865;19;20020;-81
2023/04/01 05:07:08;;;;;;;2.10;0.60;;;;;;;;;;7365950;19;20368;-81
2023/04/01 05:09:33;;;;;;;3.08;0.90;;;;;;;;;;7367804;19;20022;-81
2023/04/01 05:11:59;;;;;;;2.47;0.50;;;;;;;;;;7368003;19;20005;-79
2023/04/01 05:14:27;;;;;;;1.95;0.60;;;;;;;;;;7365505;19;20010;-78
2023/04/01 05:16:54;;;;;;;1.52;0.52;;;;;;;;;;7371087;19;20007;-80
2023/04/01 05:19:19;;;;;;;3.08;0.68;;;;;;;;;;7365361;19;20033;-79
2023/04/01 05:21:44;;;;;;;2.63;0.60;;;;;;;;;;7363619;19;20007;-81
2023/04/01 05:24:09;;;;;;;3.42;0.70;;;;;;;;;;7367269;19;20251;-83
2023/04/01 05:26:36;;;;;;;1.25;0.50;;;;;;;;;;7366868;19;20180;-82
2023/04/01 05:29:01;;;;;;;2.50;0.80;;;;;;;;;;7366485;19;20487;-83
2023/04/01 05:31:26;;;;;;;3.10;0.90;;;;;;;;;;7367521;19;20482;-78
2023/04/01 05:33:53;;;;;;;3.10;0.88;;;;;;;;;;7369431;19;20280;-81
2023/04/01 05:36:18;;;;;;;3.42;0.77;;;;;;;;;;7362882;19;20010;-80
2023/04/01 05:38:45;;;;;;;3.47;0.70;;;;;;;;;;7368165;19;19991;-78
2023/04/01 05:41:10;;;;;;;1.98;0.63;;;;;;;;;;7363080;19;20387;-77
2023/04/01 05:43:36;;;;;;;1.92;0.60;;;;;;;;;;7366002;19;19998;-81
2023/04/01 05:46:02;;;;;;;1.83;0.60;;;;;;;;;;7363102;19;20007;-81
2023/04/01 05:48:27;;;;;;;1.98;0.60;;;;;;;;;;7366127;19;20542;-82
2023/04/01 05:50:52;;;;;;;1.63;0.50;;;;;;;;;;7364961;19;20440;-79
2023/04/01 05:53:17;;;;;;;2.83;0.80;;;;;;;;;;7362982;19;20006;-81
2023/04/01 05:55:42;;;;;;;1.45;0.60;;;;;;;;;;7364761;19;20086;-80
2023/04/01 05:58:08;;;;;;;3.95;0.68;;;;;;;;;;7363389;19;20003;-82
2023/04/01 06:00:33;;;;;;;1.90;0.75;;;;;;;;;;7367708;19;20055;-81
2023/04/01 06:02:59;;;;;;;3.30;0.90;;;;;;;;;;7365252;19;20002;-81
2023/04/01 06:05:26;;;;;;;3.03;0.90;;;;;;;;;;7358650;19;20274;-83
2023/04/01 06:07:55;;;;;;;2.35;0.82;;;;;;;;;;7364045;19;20016;-80
2023/04/01 06:10:22;;;;;;;4.78;1.00;;;;;;;;;;7365201;19;20010;-80
2023/04/01 06:13:06;;;;;;;2.42;0.90;;;;;;;;;;7365212;19;20605;-79
2023/04/01 06:15:36;;;;;;;3.00;1.10;;;;;;;;;;7362438;19;20351;-80
2023/04/01 06:18:13;;;;;;;2.53;1.00;;;;;;;;;;7365643;19;20436;-80
2023/04/01 06:20:56;;;;;;;3.17;0.95;;;;;;;;;;7363279;19;20017;-85
2023/04/01 06:23:40;;;;;;;2.67;0.97;;;;;;;;;;7360379;19;20869;-82
2023/04/01 06:26:11;;;;;;;6.60;1.30;;;;;;;;;;7365319;19;20714;-80
2023/04/01 06:28:45;;;;;;;5.88;2.00;;;;;;;;;;7364861;19;19999;-81
2023/04/01 06:31:26;;;;;;;3.70;1.40;;;;;;;;;;7359317;19;20070;-84
2023/04/01 06:33:51;;;;;;;4.85;1.40;;;;;;;;;;7362946;19;20002;-81
2023/04/01 06:36:32;;;;;;;3.53;1.40;;;;;;;;;;7360345;19;19997;-80
2023/04/01 06:38:57;;;;;;;3.17;1.38;;;;;;;;;;7366204;19;20511;-79
2023/04/01 06:41:29;;;;;;;4.00;1.58;;;;;;;;;;7361137;19;19999;-83
2023/04/01 06:44:06;;;;;;;5.68;1.67;;;;;;;;;;7364557;19;20006;-81
2023/04/01 06:46:34;;;;;;;3.78;1.52;;;;;;;;;;7362920;19;20023;-84
2023/04/01 06:49:14;;;;;;;5.88;1.77;;;;;;;;;;7363259;19;20126;-81
2023/04/01 06:51:39;;;;;;;4.65;1.75;;;;;;;;;;7363656;19;19994;-80
2023/04/01 06:54:20;;;;;;;4.72;1.52;;;;;;;;;;7360512;19;20134;-83
2023/04/01 06:56:46;;;;;;;4.53;2.15;;;;;;;;;;7363959;19;20355;-80
2023/04/01 06:59:13;;;;;;;4.82;2.00;;;;;;;;;;7364743;19;20443;-78
2023/04/01 07:01:41;;;;;;;5.85;2.08;;;;;;;;;;7364630;19;20027;-81
2023/04/01 07:04:11;;;;;;;4.85;1.75;;;;;;;;;;7360218;19;20035;-80
2023/04/01 07:06:56;;;;;;;4.30;1.65;;;;;;;;;;7356266;19;19999;-78
2023/04/01 07:09:31;;;;;;;3.72;1.60;;;;;;;;;;7355559;19;20471;-79
2023/04/01 07:11:59;;;;;;;4.22;1.58;;;;;;;;;;7360951;19;20009;-82
2023/04/01 07:14:43;;;;;;;4.75;2.00;;;;;;;;;;7359066;19;20010;-84
2023/04/01 07:17:11;;;;;;;5.32;1.70;;;;;;;;;;7362448;19;20016;-82
2023/04/01 07:19:55;;;;;;;4.90;2.00;;;;;;;;;;7359989;19;20095;-81
2023/04/01 07:22:20;;;;;;;4.40;2.10;;;;;;;;;;7359247;19;20091;-79
2023/04/01 07:24:46;;;;;;;4.93;1.77;;;;;;;;;;7363413;19;20065;-82
2023/04/01 07:27:13;;;;;;;5.28;2.22;;;;;;;;;;7361902;19;20007;-82
2023/04/01 07:29:38;;;;;;;5.40;2.00;;;;;;;;;;7362999;19;20339;-80
2023/04/01 07:32:09;;;;;;;4.20;2.20;;;;;;;;;;7361069;19;19998;-81
2023/04/01 07:34:55;;;;;;;4.28;1.98;;;;;;;;;;7362457;19;20010;-80
2023/04/01 07:37:29;;;;;;;23.25;6.03;;;;;;;;;;7359129;19;20074;-80
2023/04/01 07:40:16;;;;;;;7.03;2.80;;;;;;;;;;7358045;19;20005;-78
2023/04/01 07:42:54;;;;;;;5.03;2.08;;;;;;;;;;7359041;19;20006;-80
2023/04/01 07:45:22;;;;;;;4.50;1.77;;;;;;;;;;7359244;19;20115;-80
2023/04/01 07:47:48;;;;;;;6.43;2.30;;;;;;;;;;7359726;19;20503;-83
2023/04/01 07:50:19;;;;;;;7.90;2.05;;;;;;;;;;7359831;19;20370;-82
2023/04/01 07:52:49;;;;;;;5.05;2.17;;;;;;;;;;7345276;19;20650;-84
2023/04/01 07:55:14;;;;;;;5.00;1.98;;;;;;;;;;7367860;19;20042;-76
2023/04/01 07:57:55;;;;;;;7.05;2.25;;;;;;;;;;7371999;19;20364;-77
2023/04/01 08:00:21;;;;;;;6.70;2.05;;;;;;;;;;7371370;19;20052;-79
2023/04/01 08:02:46;;;;;;;5.45;2.00;;;;;;;;;;7370698;19;20003;-80
2023/04/01 08:05:17;;;;;;;4.37;1.80;;;;;;;;;;7371534;19;20486;-80
2023/04/01 08:07:45;;;;;;;4.80;1.63;;;;;;;;;;7371798;19;20243;-83
2023/04/01 08:10:23;;;;;;;4.28;2.00;;;;;;;;;;7371567;19;20059;-78
2023/04/01 08:12:48;;;;;;;4.47;1.92;;;;;;;;;;7374688;19;20436;-78
2023/04/01 08:15:32;;;;;;;5.28;1.60;;;;;;;;;;7370809;19;20021;-81
2023/04/01 08:18:07;;;;;;;3.95;1.88;;;;;;;;;;7374839;19;20111;-80
2023/04/01 08:20:39;;;;;;;5.32;2.25;;;;;;;;;;7373597;19;20011;-77
2023/04/01 08:23:10;;;;;;;4.68;2.30;;;;;;;;;;7372132;19;20097;-77
2023/04/01 08:25:37;;;;;;;5.10;2.13;;;;;;;;;;7371165;19;19999;-80
2023/04/01 08:28:24;;;;;;;5.60;2.60;;;;;;;;;;7373666;19;20038;-79
2023/04/01 08:30:53;;;;;;;5.63;2.83;;;;;;;;;;7371715;19;20049;-77
2023/04/01 08:33:18;;;;;;;5.50;2.42;;;;;;;;;;7373457;19;20025;-77
2023/04/01 08:35:43;;;;;;;5.30;2.72;;;;;;;;;;7374059;19;19991;-78
2023/04/01 08:38:14;;;;;;;6.75;2.97;;;;;;;;;;7370047;19;20006;-82
2023/04/01 08:40:48;;;;;;;6.10;2.85;;;;;;;;;;7370779;19;20007;-78
2023/04/01 08:43:32;;;;;;;6.32;3.40;;;;;;;;;;7372282;19;20003;-82
2023/04/01 08:46:00;;;;;;;6.75;3.38;;;;;;;;;;7369503;19;20019;-77
2023/04/01 08:48:35;;;;;;;13.23;4.43;;;;;;;;;;7369510;19;20027;-82
2023/04/01 08:51:03;;;;;;;13.45;3.85;;;;;;;;;;7373700;19;20013;-77
2023/04/01 08:53:47;;;;;;;7.53;3.75;;;;;;;;;;7360553;19;20110;-77
2023/04/01 08:56:20;;;;;;;6.10;3.92;;;;;;;;;;7379248;19;20022;-84
2023/04/01 08:58:48;;;;;;;6.65;3.70;;;;;;;;;;7381303;19;20125;-81
2023/04/01 09:01:16;;;;;;;6.57;4.00;;;;;;;;;;7377525;19;20550;-80
2023/04/01 09:03:44;;;;;;;6.97;3.50;;;;;;;;;;7379051;19;20221;-78
2023/04/01 09:06:26;;;;;;;9.07;4.18;;;;;;;;;;7376338;19;20082;-83
2023/04/01 09:09:01;;;;;;;7.22;3.50;;;;;;;;;;7379316;19;20009;-80
2023/04/01 09:11:46;;;;;;;9.10;3.63;;;;;;;;;;7379343;19;20031;-83
2023/04/01 09:14:30;;;;;;;5.45;3.05;;;;;;;;;;7381099;19;20011;-77
2023/04/01 09:17:07;;;;;;;5.90;2.72;;;;;;;;;;7371511;19;20002;-81
2023/04/01 09:19:48;;;;;;;4.75;2.30;;;;;;;;;;7380371;19;20054;-81
2023/04/01 09:22:13;;;;;;;4.32;2.00;;;;;;;;;;7375967;19;20022;-85
2023/04/01 09:24:38;;;;;;;4.15;1.80;;;;;;;;;;7377792;19;20014;-79
2023/04/01 09:27:26;;;;;;;5.00;1.70;;;;;;;;;;7379147;19;19994;-78
2023/04/01 09:29:56;;;;;;;3.38;1.52;;;;;;;;;;7380264;19;20381;-80
2023/04/01 09:32:38;;;;;;;4.13;1.73;;;;;;;;;;7375678;19;20002;-78
2023/04/01 09:35:19;;;;;;;5.03;2.10;;;;;;;;;;7379529;19;20034;-79
2023/04/01 09:38:00;;;;;;;3.72;1.75;;;;;;;;;;7376597;19;20020;-79
2023/04/01 09:40:31;;;;;;;4.18;2.30;;;;;;;;;;7376712;19;20445;-78
2023/04/01 09:43:02;;;;;;;4.88;2.67;;;;;;;;;;7374749;19;20110;-79
2023/04/01 09:45:33;;;;;;;5.68;2.58;;;;;;;;;;7373164;19;20117;-79
2023/04/01 09:48:09;;;;;;;4.93;2.08;;;;;;;;;;7380101;19;20051;-78
2023/04/01 09:50:52;;;;;;;4.20;2.00;;;;;;;;;;7376423;19;20018;-81
2023/04/01 09:53:39;;;;;;;4.40;2.50;;;;;;;;;;7366796;19;20009;-80
2023/04/01 09:56:05;;;;;;;4.38;2.17;;;;;;;;;;7378566;19;19994;-79
2023/04/01 09:58:48;;;;;;;5.60;2.33;;;;;;;;;;7378317;19;20027;-78
2023/04/01 10:01:32;;;;;;;4.93;1.90;;;;;;;;;;7378566;19;20739;-80
2023/04/01 10:04:17;;;;;;;4.15;1.73;;;;;;;;;;7375289;19;20005;-78
2023/04/01 10:06:57;;;;;;;3.95;1.90;;;;;;;;;;7377231;19;20025;-80
2023/04/01 10:09:41;;;;;;;4.45;2.10;;;;;;;;;;7379218;19;20052;-80
2023/04/01 10:12:25;;;;;;;4.28;2.10;;;;;;;;;;7379477;19;20089;-80
2023/04/01 10:15:10;;;;;;;7.43;2.13;;;;;;;;;;7378844;19;20005;-79
2023/04/01 10:17:35;;;;;;;4.05;2.13;;;;;;;;;;7378444;19;20014;-80
2023/04/01 10:20:00;;;;;;;4.35;1.98;;;;;;;;;;7379214;19;20015;-83
2023/04/01 10:22:44;;;;;;;4.30;2.10;;;;;;;;;;7369983;19;20254;-81
2023/04/01 10:25:28;;;;;;;4.60;2.03;;;;;;;;;;7375718;19;20263;-82
2023/04/01 10:28:06;;;;;;;4.57;2.35;;;;;;;;;;7377806;19;19999;-79
2023/04/01 10:30:40;;;;;;;4.75;2.03;;;;;;;;;;7373183;19;20054;-80
2023/04/01 10:33:24;;;;;;;6.18;2.35;;;;;;;;;;7378770;19;20345;-80
2023/04/01 10:36:08;;;;;;;4.43;2.40;;;;;;;;;;7378824;19;20066;-82
2023/04/01 10:38:40;;;;;;;4.75;2.72;;;;;;;;;;7376663;19;20067;-78
2023/04/01 10:41:09;;;;;;;5.88;3.33;;;;;;;;;;7374618;19;20412;-82
2023/04/01 10:43:43;;;;;;;5.22;2.90;;;;;;;;;;7375970;19;20003;-80
2023/04/01 10:46:08;;;;;;;5.90;3.17;;;;;;;;;;7375466;19;20023;-79
2023/04/01 10:48:49;;;;;;;6.67;3.20;;;;;;;;;;7375831;19;20053;-80
2023/04/01 10:51:32;;;;;;;4.68;2.40;;;;;;;;;;7374709;19;20363;-83
2023/04/01 10:54:16;;;;;;;5.78;2.45;;;;;;;;;;7377985;19;20006;-81
2023/04/01 10:57:00;;;;;;;8.45;3.70;;;;;;;;;;7376717;19;20007;-81
2023/04/01 10:59:25;;;;;;;;;;;;;;;;;;7376814;19;20111;-82
2023/04/01 11:01:58;;;;;;;6.50;2.38;;;;;;;;;;7374271;19;20006;-84
2023/04/01 11:04:41;;;;;;;5.10;2.10;;;;;;;;;;7375941;19;20030;-83
2023/04/01 11:07:27;;;;;;;5.05;1.95;;;;;;;;;;7375262;19;20369;-79
2023/04/01 11:10:15;;;;;;;3.70;1.67;;;;;;;;;;7376209;19;20092;-80
2023/04/01 11:13:05;;;;;;;4.68;2.08;;;;;;;;;;7376380;19;20011;-80
2023/04/01 11:15:48;;;;;;;4.63;1.85;;;;;;;;;;7375267;19;20014;-81
2023/04/01 11:18:25;;;;;;;4.80;1.95;;;;;;;;;;7375883;19;20110;-83
2023/04/01 11:21:09;;;;;;;3.95;1.67;;;;;;;;;;7375049;19;20006;-82
2023/04/01 11:23:42;;;;;;;4.00;1.60;;;;;;;;;;7374672;19;20009;-80
2023/04/01 11:26:08;;;;;;;3.42;1.48;;;;;;;;;;7376482;19;20040;-81
2023/04/01 11:28:36;;;;;;;3.70;1.60;;;;;;;;;;7374458;19;19998;-80
2023/04/01 11:31:01;;;;;;;3.88;1.63;;;;;;;;;;7373674;19;20028;-83
2023/04/01 11:33:41;;;;;;;4.07;1.40;;;;;;;;;;7374418;19;20006;-81
2023/04/01 11:36:16;;;;;;;3.70;1.73;;;;;;;;;;7374790;19;20412;-86
2023/04/01 11:38:56;;;;;;;3.60;1.65;;;;;;;;;;7372883;19;20567;-80
2023/04/01 11:41:33;;;;;;;3.63;1.60;;;;;;;;;;7371929;19;20005;-83
2023/04/01 11:44:11;;;;;;;4.20;1.90;;;;;;;;;;7374282;19;20026;-81
2023/04/01 11:46:51;;;;;;;3.80;1.60;;;;;;;;;;7371905;19;19998;-81
2023/04/01 11:49:19;;;;;;;5.82;1.98;;;;;;;;;;7377162;19;20464;-83
2023/04/01 11:51:55;;;;;;;5.32;1.90;;;;;;;;;;7371387;19;20138;-80
2023/04/01 11:54:20;;;;;;;3.47;1.40;;;;;;;;;;7374122;19;20073;-82
2023/04/01 11:57:04;;;;;;;5.07;1.70;;;;;;;;;;7373915;19;20098;-81
2023/04/01 11:59:29;;;;;;;3.45;1.38;;;;;;;;;;7374306;19;20007;-79
2023/04/01 12:01:59;;;;;;;4.65;1.10;;;;;;;;;;7366978;19;19987;-82
2023/04/01 12:04:43;;;;;;;4.28;1.65;;;;;;;;;;7368401;19;20006;-85
2023/04/01 12:07:21;;;;;;;3.08;1.42;;;;;;;;;;7362892;19;19995;-80
2023/04/01 12:09:52;;;;;;;3.60;1.77;;;;;;;;;;7371065;19;20002;-81
2023/04/01 12:12:23;;;;;;;3.20;1.60;;;;;;;;;;7374454;19;19997;-82
2023/04/01 12:14:57;;;;;;;3.70;1.65;;;;;;;;;;7371374;19;20006;-80
2023/04/01 12:17:46;;;;;;;4.97;1.90;;;;;;;;;;7371025;19;20420;-87
2023/04/01 12:20:11;;;;;;;4.35;1.92;;;;;;;;;;7375556;19;20147;-83
2023/04/01 12:22:43;;;;;;;3.60;1.60;;;;;;;;;;7368987;19;20071;-82
2023/04/01 12:25:18;;;;;;;3.85;1.60;;;;;;;;;;7359282;19;20039;-82
2023/04/01 12:28:02;;;;;;;4.38;1.90;;;;;;;;;;7359398;19;20629;-82
2023/04/01 12:30:27;;;;;;;;;;;;;;;;;;7383081;19;20364;-82
2023/04/01 12:33:11;;;;;;;5.60;1.85;;;;;;;;;;7381321;19;19919;-83
2023/04/01 12:35:48;;;;;;;3.70;1.40;;;;;;;;;;7378161;19;20017;-82
2023/04/01 12:38:26;;;;;;;3.55;1.55;;;;;;;;;;7379571;19;20007;-81
2023/04/01 12:40:51;;;;;;;4.75;1.10;;;;;;;;;;7378505;19;19999;-79
2023/04/01 12:43:19;;;;;;;2.83;1.10;;;;;;;;;;7379815;19;20009;-81
2023/04/01 12:46:03;;;;;;;3.05;1.40;;;;;;;;;;7378384;19;20524;-83
2023/04/01 12:48:46;;;;;;;3.47;1.63;;;;;;;;;;7379596;19;20006;-83
2023/04/01 12:51:20;;;;;;;4.60;1.70;;;;;;;;;;7379139;19;20344;-80
2023/04/01 12:53:45;;;;;;;3.53;1.40;;;;;;;;;;7376701;19;20370;-80
2023/04/01 12:56:17;;;;;;;3.00;1.13;;;;;;;;;;7381909;19;20020;-81
2023/04/01 12:58:59;;;;;;;3.60;1.40;;;;;;;;;;7379927;19;20247;-79
2023/04/01 13:01:25;;;;;;;2.92;1.30;;;;;;;;;;7380270;19;20002;-80
2023/04/01 13:04:01;;;;;;;4.35;1.77;;;;;;;;;;7380929;19;19999;-83
2023/04/01 13:06:29;;;;;;;3.47;1.50;;;;;;;;;;7376133;19;20285;-84
2023/04/01 13:09:03;;;;;;;3.55;1.70;;;;;;;;;;7381193;19;20051;-85
2023/04/01 13:11:47;;;;;;;4.53;1.40;;;;;;;;;;7379372;19;19999;-81
2023/04/01 13:14:15;;;;;;;3.40;1.45;;;;;;;;;;7380077;19;20383;-81
2023/04/01 13:17:06;;;;;;;4.25;1.80;;;;;;;;;;7380368;19;20058;-80
2023/04/01 13:19:35;;;;;;;5.80;2.80;;;;;;;;;;7377990;19;20394;-83
2023/04/01 13:22:15;;;;;;;4.57;1.80;;;;;;;;;;7376461;19;20039;-83
2023/04/01 13:24:44;;;;;;;4.20;2.28;;;;;;;;;;7377936;19;20344;-80
2023/04/01 13:27:14;;;;;;;3.75;1.80;;;;;;;;;;7380405;19;20034;-82
2023/04/01 13:29:47;;;;;;;4.60;1.63;;;;;;;;;;7379670;19;20085;-80
2023/04/01 13:32:13;;;;;;;3.75;1.83;;;;;;;;;;7377901;19;20078;-82
2023/04/01 13:34:47;;;;;;;3.95;1.75;;;;;;;;;;7378598;19;20055;-83
2023/04/01 13:37:18;;;;;;;4.40;1.83;;;;;;;;;;7377416;19;20463;-80
2023/04/01 13:39:46;;;;;;;4.30;2.35;;;;;;;;;;7375464;19;20066;-81
2023/04/01 13:42:18;;;;;;;4.28;2.20;;;;;;;;;;7376416;19;20379;-84
2023/04/01 13:44:49;;;;;;;4.93;2.15;;;;;;;;;;7377362;19;20002;-80
2023/04/01 13:47:26;;;;;;;4.57;2.10;;;;;;;;;;7378127;19;20015;-81
2023/04/01 13:50:04;;;;;;;3.88;1.98;;;;;;;;;;7377859;19;20006;-81
2023/04/01 13:52:46;;;;;;;4.35;2.40;;;;;;;;;;7375666;19;20428;-82
2023/04/01 13:55:31;;;;;;;5.28;2.70;;;;;;;;;;7378903;19;20368;-81
2023/04/01 13:58:23;;;;;;;4.35;2.58;;;;;;;;;;7375385;19;20013;-81
2023/04/01 14:00:56;;;;;;;4.97;2.72;;;;;;;;;;7374797;19;20002;-81
2023/04/01 14:03:27;;;;;;;4.60;2.50;;;;;;;;;;7377760;19;20006;-80
2023/04/01 14:06:01;;;;;;;4.60;2.40;;;;;;;;;;7375363;19;20007;-80
2023/04/01 14:08:33;;;;;;;4.68;2.45;;;;;;;;;;7373060;19;20469;-81
2023/04/01 14:11:01;;;;;;;9.07;2.83;;;;;;;;;;7377586;19;20010;-81
2023/04/01 14:13:26;;;;;;;5.90;3.20;;;;;;;;;;7374801;19;20005;-86
2023/04/01 14:16:11;;;;;;;5.03;2.75;;;;;;;;;;7375164;19;19995;-80
2023/04/01 14:18:45;;;;;;;4.63;2.60;;;;;;;;;;7376170;19;20391;-84
2023/04/01 14:21:23;;;;;;;6.30;3.63;;;;;;;;;;7376848;19;19999;-82
2023/04/01 14:23:55;;;;;;;5.63;3.55;;;;;;;;;;7376816;19;20002;-81
2023/04/01 14:26:26;;;;;;;5.68;2.95;;;;;;;;;;7376345;19;20013;-80
2023/04/01 14:29:10;;;;;;;5.85;3.10;;;;;;;;;;7377402;19;20010;-82
2023/04/01 14:31:55;;;;;;;5.18;2.97;;;;;;;;;;7373856;19;20033;-84
2023/04/01 14:34:20;;;;;;;4.93;2.80;;;;;;;;;;7377640;19;20351;-84
2023/04/01 14:37:01;;;;;;;4.57;2.77;;;;;;;;;;7372424;19;20060;-82
2023/04/01 14:39:26;;;;;;;5.53;3.13;;;;;;;;;;7378183;19;20224;-80
2023/04/01 14:42:11;;;;;;;5.97;2.90;;;;;;;;;;7369432;19;20007;-81
2023/04/01 14:44:49;;;;;;;5.35;2.60;;;;;;;;;;7370839;19;20029;-82
2023/04/01 14:47:33;;;;;;;5.20;2.47;;;;;;;;;;7376904;19;20006;-81
2023/04/01 14:50:12;;;;;;;5.07;2.78;;;;;;;;;;7375907;19;20024;-85
2023/04/01 14:52:39;;;;;;;4.45;2.40;;;;;;;;;;7373537;19;20154;-81
2023/04/01 14:55:31;;;;;;;5.15;2.60;;;;;;;;;;7376249;19;20026;-81
2023/04/01 14:58:04;;;;;;;4.90;2.63;;;;;;;;;;7373207;19;20110;-80
2023/04/01 15:00:40;;;;;;;5.07;2.90;;;;;;;;;;7375576;19;20010;-80
2023/04/01 15:03:15;;;;;;;4.80;2.83;;;;;;;;;;7355535;19;20007;-81
2023/04/01 15:05:44;;;;;;;6.63;3.40;;;;;;;;;;7353707;19;19999;-87
2023/04/01 15:08:15;;;;;;;5.75;3.72;;;;;;;;;;7371676;19;20212;-78